sensor_id;sensor_type;location;lat;lon;timestamp;pressure;altitude;pressure_sealevel;temperature;humidity
23899;BME280;20544;50.018;20.010;2023-03-26T00:02:21;97840.81;;;9.28;100.00
23899;BME280;20544;50.018;20.010;2023-03-26T00:05:38;97846.53;;;9.32;100.00
23899;BME280;20544;50.018;20.010;2023-03-26T00:08:57;97842.22;;;9.24;100.00
23899;BME280;20544;50.018;20.010;2023-03-26T00:12:14;97840.16;;;9.19;100.00
23899;BME280;20544;50.018;20.010;2023-03-26T00:15:31;97840.00;;;9.28;100.00
23899;BME280;20544;50.018;20.010;2023-03-26T00:18:49;97839.73;;;9.16;100.00
23899;BME280;20544;50.018;20.010;2023-03-26T00:22:05;97837.94;;;9.23;100.00
23899;BME280;20544;50.018;20.010;2023-03-26T00:25:24;97839.78;;;9.22;100.00
23899;BME280;20544;50.018;20.010;2023-03-26T00:28:43;97823.05;;;9.15;100.00
23899;BME280;20544;50.018;20.010;2023-03-26T00:31:59;97825.36;;;9.32;100.00
23899;BME280;20544;50.018;20.010;2023-03-26T00:35:16;97817.61;;;9.23;100.00
23899;BME280;20544;50.018;20.010;2023-03-26T00:38:33;97825.36;;;9.32;100.00
23899;BME280;20544;50.018;20.010;2023-03-26T00:41:50;97822.28;;;9.28;100.00
23899;BME280;20544;50.018;20.010;2023-03-26T00:45:08;97814.77;;;9.32;100.00
23899;BME280;20544;50.018;20.010;2023-03-26T00:48:27;97815.78;;;9.31;100.00
23899;BME280;20544;50.018;20.010;2023-03-26T00:51:47;97815.78;;;9.31;100.00
23899;BME280;20544;50.018;20.010;2023-03-26T00:55:04;97808.45;;;9.26;100.00
23899;BME280;20544;50.018;20.010;2023-03-26T00:58:22;97806.41;;;9.28;100.00
23899;BME280;20544;50.018;20.010;2023-03-26T01:01:39;97801.91;;;9.22;100.00
23899;BME280;20544;50.018;20.010;2023-03-26T01:04:58;97803.91;;;9.13;100.00
23899;BME280;20544;50.018;20.010;2023-03-26T01:08:32;97801.30;;;9.20;100.00
23899;BME280;20544;50.018;20.010;2023-03-26T01:11:50;97803.55;;;9.23;100.00
23899;BME280;20544;50.018;20.010;2023-03-26T01:15:09;97794.22;;;9.27;100.00
23899;BME280;20544;50.018;20.010;2023-03-26T01:18:27;97801.53;;;9.25;100.00
23899;BME280;20544;50.018;20.010;2023-03-26T01:21:48;97802.52;;;9.17;100.00
23899;BME280;20544;50.018;20.010;2023-03-26T01:25:07;97808.45;;;9.26;100.00
23899;BME280;20544;50.018;20.010;2023-03-26T01:28:25;97807.47;;;9.34;100.00
23899;BME280;20544;50.018;20.010;2023-03-26T01:31:46;97804.19;;;9.32;100.00
23899;BME280;20544;50.018;20.010;2023-03-26T01:35:17;97808.68;;;9.31;100.00
23899;BME280;20544;50.018;20.010;2023-03-26T01:38:42;97811.53;;;9.30;100.00
23899;BME280;20544;50.018;20.010;2023-03-26T01:42:04;97820.70;;;9.34;100.00
23899;BME280;20544;50.018;20.010;2023-03-26T01:45:25;97821.64;;;9.19;100.00
23899;BME280;20544;50.018;20.010;2023-03-26T01:48:45;97811.26;;;9.18;100.00
23899;BME280;20544;50.018;20.010;2023-03-26T01:52:04;97800.60;;;9.04;100.00
23899;BME280;20544;50.018;20.010;2023-03-26T01:55:27;97780.95;;;8.79;100.00
23899;BME280;20544;50.018;20.010;2023-03-26T01:58:53;97787.59;;;8.68;100.00
23899;BME280;20544;50.018;20.010;2023-03-26T02:02:16;97783.72;;;8.64;100.00
23899;BME280;20544;50.018;20.010;2023-03-26T02:05:37;97780.27;;;8.41;100.00
23899;BME280;20544;50.018;20.010;2023-03-26T02:08:57;97775.55;;;8.37;100.00
23899;BME280;20544;50.018;20.010;2023-03-26T02:12:17;97782.00;;;8.28;100.00
23899;BME280;20544;50.018;20.010;2023-03-26T02:15:34;97771.77;;;8.18;100.00
23899;BME280;20544;50.018;20.010;2023-03-26T02:18:51;97766.23;;;8.13;100.00
23899;BME280;20544;50.018;20.010;2023-03-26T02:22:08;97770.44;;;8.07;100.00
23899;BME280;20544;50.018;20.010;2023-03-26T02:25:26;97767.16;;;8.05;100.00
23899;BME280;20544;50.018;20.010;2023-03-26T02:28:44;97773.04;;;8.00;100.00
23899;BME280;20544;50.018;20.010;2023-03-26T02:32:01;97767.52;;;7.95;100.00
23899;BME280;20544;50.018;20.010;2023-03-26T02:35:20;97773.80;;;7.94;100.00
23899;BME280;20544;50.018;20.010;2023-03-26T02:38:38;97773.16;;;7.92;100.00
23899;BME280;20544;50.018;20.010;2023-03-26T02:41:55;97767.75;;;7.78;100.00
23899;BME280;20544;50.018;20.010;2023-03-26T02:45:14;97768.94;;;7.76;100.00
23899;BME280;20544;50.018;20.010;2023-03-26T02:48:49;97774.17;;;7.69;100.00
23899;BME280;20544;50.018;20.010;2023-03-26T02:52:06;97768.25;;;7.67;100.00
23899;BME280;20544;50.018;20.010;2023-03-26T02:55:24;97774.81;;;7.71;100.00
23899;BME280;20544;50.018;20.010;2023-03-26T02:58:42;97769.69;;;7.70;100.00
23899;BME280;20544;50.018;20.010;2023-03-26T03:01:59;97775.50;;;7.80;100.00
23899;BME280;20544;50.018;20.010;2023-03-26T03:05:16;97769.02;;;7.83;100.00
23899;BME280;20544;50.018;20.010;2023-03-26T03:08:46;97769.02;;;7.83;100.00
23899;BME280;20544;50.018;20.010;2023-03-26T03:12:18;97770.22;;;7.80;100.00
23899;BME280;20544;50.018;20.010;2023-03-26T03:15:36;97773.91;;;7.86;100.00
23899;BME280;20544;50.018;20.010;2023-03-26T03:18:52;97775.36;;;7.88;100.00
23899;BME280;20544;50.018;20.010;2023-03-26T03:22:10;97772.11;;;7.86;100.00
23899;BME280;20544;50.018;20.010;2023-03-26T03:25:26;97768.72;;;7.92;100.00
23899;BME280;20544;50.018;20.010;2023-03-26T03:28:42;97767.88;;;7.92;100.00
23899;BME280;20544;50.018;20.010;2023-03-26T03:31:58;97765.67;;;7.96;100.00
23899;BME280;20544;50.018;20.010;2023-03-26T03:35:17;97761.48;;;8.01;100.00
23899;BME280;20544;50.018;20.010;2023-03-26T03:38:35;97763.52;;;8.06;100.00
23899;BME280;20544;50.018;20.010;2023-03-26T03:41:54;97759.52;;;8.10;100.00
23899;BME280;20544;50.018;20.010;2023-03-26T03:45:12;97760.36;;;8.17;100.00
23899;BME280;20544;50.018;20.010;2023-03-26T03:48:33;97772.96;;;8.15;100.00
23899;BME280;20544;50.018;20.010;2023-03-26T03:51:52;97772.96;;;8.15;100.00
23899;BME280;20544;50.018;20.010;2023-03-26T03:55:11;97775.45;;;8.23;100.00
23899;BME280;20544;50.018;20.010;2023-03-26T03:58:29;97771.80;;;8.24;100.00
23899;BME280;20544;50.018;20.010;2023-03-26T04:01:47;97770.80;;;8.25;100.00
23899;BME280;20544;50.018;20.010;2023-03-26T04:05:07;97781.80;;;8.29;100.00
23899;BME280;20544;50.018;20.010;2023-03-26T04:08:26;97769.03;;;8.33;100.00
23899;BME280;20544;50.018;20.010;2023-03-26T04:11:44;97774.52;;;8.31;100.00
23899;BME280;20544;50.018;20.010;2023-03-26T04:15:03;97776.19;;;8.39;100.00
23899;BME280;20544;50.018;20.010;2023-03-26T04:18:21;97771.91;;;8.38;100.00
23899;BME280;20544;50.018;20.010;2023-03-26T04:21:38;97768.27;;;8.39;100.00
23899;BME280;20544;50.018;20.010;2023-03-26T04:24:56;97769.27;;;8.38;100.00
23899;BME280;20544;50.018;20.010;2023-03-26T04:28:21;97768.47;;;8.37;100.00
23899;BME280;20544;50.018;20.010;2023-03-26T04:31:59;97762.34;;;8.37;100.00
23899;BME280;20544;50.018;20.010;2023-03-26T04:35:17;97764.98;;;8.37;100.00
23899;BME280;20544;50.018;20.010;2023-03-26T04:38:38;97755.05;;;8.39;100.00
23899;BME280;20544;50.018;20.010;2023-03-26T04:42:00;97753.41;;;8.38;100.00
23899;BME280;20544;50.018;20.010;2023-03-26T04:45:19;97743.85;;;8.37;100.00
23899;BME280;20544;50.018;20.010;2023-03-26T04:48:35;97744.48;;;8.39;100.00
23899;BME280;20544;50.018;20.010;2023-03-26T04:51:52;97745.69;;;8.36;100.00
23899;BME280;20544;50.018;20.010;2023-03-26T04:55:29;97750.14;;;8.36;100.00
23899;BME280;20544;50.018;20.010;2023-03-26T04:58:49;97743.85;;;8.37;100.00
23899;BME280;20544;50.018;20.010;2023-03-26T05:02:08;97747.50;;;8.36;100.00
23899;BME280;20544;50.018;20.010;2023-03-26T05:05:29;97737.36;;;8.39;100.00
23899;BME280;20544;50.018;20.010;2023-03-26T05:08:47;97743.72;;;8.45;100.00
23899;BME280;20544;50.018;20.010;2023-03-26T05:12:11;97745.52;;;8.45;100.00
23899;BME280;20544;50.018;20.010;2023-03-26T05:15:40;97755.75;;;8.48;100.00
23899;BME280;20544;50.018;20.010;2023-03-26T05:18:58;97747.33;;;8.37;100.00
23899;BME280;20544;50.018;20.010;2023-03-26T05:22:15;97758.73;;;8.45;100.00
23899;BME280;20544;50.018;20.010;2023-03-26T05:25:33;97746.92;;;8.40;100.00
23899;BME280;20544;50.018;20.010;2023-03-26T05:28:57;97741.44;;;8.42;100.00
23899;BME280;20544;50.018;20.010;2023-03-26T05:32:20;97739.80;;;8.41;100.00
23899;BME280;20544;50.018;20.010;2023-03-26T05:35:36;97735.35;;;8.41;100.00
23899;BME280;20544;50.018;20.010;2023-03-26T05:38:53;97740.64;;;8.41;100.00
23899;BME280;20544;50.018;20.010;2023-03-26T05:42:28;97746.92;;;8.40;100.00
23899;BME280;20544;50.018;20.010;2023-03-26T05:45:55;97742.88;;;8.45;100.00
23899;BME280;20544;50.018;20.010;2023-03-26T05:49:12;97735.05;;;8.51;100.00
23899;BME280;20544;50.018;20.010;2023-03-26T05:52:29;97746.48;;;8.58;100.00
23899;BME280;20544;50.018;20.010;2023-03-26T05:55:49;97743.00;;;8.58;100.00
23899;BME280;20544;50.018;20.010;2023-03-26T05:59:24;97750.36;;;8.63;100.00
23899;BME280;20544;50.018;20.010;2023-03-26T06:02:58;97749.66;;;8.82;100.00
23899;BME280;20544;50.018;20.010;2023-03-26T06:06:19;97756.85;;;9.02;100.00
23899;BME280;20544;50.018;20.010;2023-03-26T06:09:39;97748.74;;;9.03;100.00
23899;BME280;20544;50.018;20.010;2023-03-26T06:12:55;97759.13;;;9.12;100.00
23899;BME280;20544;50.018;20.010;2023-03-26T06:16:14;97756.25;;;9.00;100.00
23899;BME280;20544;50.018;20.010;2023-03-26T06:19:34;97756.27;;;9.06;100.00
23899;BME280;20544;50.018;20.010;2023-03-26T06:22:52;97754.06;;;9.17;100.00
23899;BME280;20544;50.018;20.010;2023-03-26T06:26:11;97747.98;;;9.23;100.00
23899;BME280;20544;50.018;20.010;2023-03-26T06:29:29;97754.91;;;9.24;100.00
23899;BME280;20544;50.018;20.010;2023-03-26T06:32:59;97752.28;;;9.31;100.00
23899;BME280;20544;50.018;20.010;2023-03-26T06:36:44;97763.48;;;9.26;100.00
23899;BME280;20544;50.018;20.010;2023-03-26T06:40:16;97759.84;;;9.41;100.00
23899;BME280;20544;50.018;20.010;2023-03-26T06:44:00;97757.66;;;9.58;100.00
23899;BME280;20544;50.018;20.010;2023-03-26T06:47:32;97759.09;;;9.60;100.00
23899;BME280;20544;50.018;20.010;2023-03-26T06:51:12;97758.70;;;9.70;100.00
23899;BME280;20544;50.018;20.010;2023-03-26T06:55:24;97765.22;;;9.67;100.00
23899;BME280;20544;50.018;20.010;2023-03-26T06:59:21;97757.72;;;9.84;100.00
23899;BME280;20544;50.018;20.010;2023-03-26T07:03:32;97763.81;;;9.92;100.00
23899;BME280;20544;50.018;20.010;2023-03-26T07:07:05;97756.49;;;9.94;100.00
23899;BME280;20544;50.018;20.010;2023-03-26T07:11:03;97760.36;;;9.91;100.00
23899;BME280;20544;50.018;20.010;2023-03-26T07:14:23;97753.25;;;10.18;100.00
23899;BME280;20544;50.018;20.010;2023-03-26T07:17:41;97755.28;;;10.30;100.00
23899;BME280;20544;50.018;20.010;2023-03-26T07:21:03;97767.09;;;10.14;100.00
23899;BME280;20544;50.018;20.010;2023-03-26T07:24:22;97769.53;;;10.15;100.00
23899;BME280;20544;50.018;20.010;2023-03-26T07:27:48;97761.20;;;10.32;100.00
23899;BME280;20544;50.018;20.010;2023-03-26T07:31:17;97762.44;;;10.36;100.00
23899;BME280;20544;50.018;20.010;2023-03-26T07:34:50;97748.98;;;10.38;100.00
23899;BME280;20544;50.018;20.010;2023-03-26T07:38:30;97756.31;;;11.60;100.00
23899;BME280;20544;50.018;20.010;2023-03-26T07:42:17;97759.94;;;12.73;100.00
23899;BME280;20544;50.018;20.010;2023-03-26T07:46:02;97764.52;;;13.22;100.00
23899;BME280;20544;50.018;20.010;2023-03-26T07:49:25;97767.64;;;14.10;100.00
23899;BME280;20544;50.018;20.010;2023-03-26T07:52:45;97765.05;;;14.69;100.00
23899;BME280;20544;50.018;20.010;2023-03-26T07:56:22;97763.78;;;15.25;100.00
23899;BME280;20544;50.018;20.010;2023-03-26T07:59:48;97755.42;;;15.21;100.00
23899;BME280;20544;50.018;20.010;2023-03-26T08:03:42;97751.27;;;15.13;100.00
23899;BME280;20544;50.018;20.010;2023-03-26T08:07:17;97745.14;;;15.13;100.00
23899;BME280;20544;50.018;20.010;2023-03-26T08:11:30;97751.77;;;14.98;100.00
23899;BME280;20544;50.018;20.010;2023-03-26T08:14:58;97754.98;;;15.82;100.00
23899;BME280;20544;50.018;20.010;2023-03-26T08:18:27;97751.84;;;15.85;100.00
23899;BME280;20544;50.018;20.010;2023-03-26T08:21:52;97757.60;;;15.94;100.00
23899;BME280;20544;50.018;20.010;2023-03-26T08:25:24;97755.88;;;16.56;100.00
23899;BME280;20544;50.018;20.010;2023-03-26T08:28:52;97758.07;;;16.59;100.00
23899;BME280;20544;50.018;20.010;2023-03-26T08:32:15;97759.06;;;15.44;100.00
23899;BME280;20544;50.018;20.010;2023-03-26T08:35:36;97752.14;;;14.31;100.00
23899;BME280;20544;50.018;20.010;2023-03-26T08:38:56;97749.17;;;13.85;100.00
23899;BME280;20544;50.018;20.010;2023-03-26T08:46:56;97747.00;;;13.63;100.00
23899;BME280;20544;50.018;20.010;2023-03-26T08:54:49;97743.22;;;13.22;100.00
23899;BME280;20544;50.018;20.010;2023-03-26T08:58:49;97736.45;;;12.89;100.00
23899;BME280;20544;50.018;20.010;2023-03-26T09:02:36;97749.39;;;12.85;100.00
23899;BME280;20544;50.018;20.010;2023-03-26T09:06:33;97753.20;;;13.26;100.00
23899;BME280;20544;50.018;20.010;2023-03-26T09:14:19;97734.48;;;14.89;100.00
23899;BME280;20544;50.018;20.010;2023-03-26T09:22:02;97735.33;;;16.05;100.00
23899;BME280;20544;50.018;20.010;2023-03-26T09:25:53;97730.00;;;16.61;100.00
23899;BME280;20544;50.018;20.010;2023-03-26T09:29:40;97738.70;;;15.83;100.00
23899;BME280;20544;50.018;20.010;2023-03-26T09:37:19;97732.13;;;15.91;100.00
23899;BME280;20544;50.018;20.010;2023-03-26T09:40:42;97735.14;;;15.49;100.00
23899;BME280;20544;50.018;20.010;2023-03-26T09:44:31;97725.58;;;15.53;100.00
23899;BME280;20544;50.018;20.010;2023-03-26T09:48:41;97737.35;;;15.40;100.00
23899;BME280;20544;50.018;20.010;2023-03-26T09:56:01;97736.20;;;15.07;100.00
23899;BME280;20544;50.018;20.010;2023-03-26T09:59:38;97733.67;;;15.00;100.00
23899;BME280;20544;50.018;20.010;2023-03-26T10:03:27;97729.88;;;14.61;100.00
23899;BME280;20544;50.018;20.010;2023-03-26T10:06:55;97721.27;;;14.23;100.00
23899;BME280;20544;50.018;20.010;2023-03-26T10:10:19;97720.92;;;13.96;100.00
23899;BME280;20544;50.018;20.010;2023-03-26T10:13:48;97719.98;;;13.90;100.00
23899;BME280;20544;50.018;20.010;2023-03-26T10:17:15;97712.22;;;13.88;100.00
23899;BME280;20544;50.018;20.010;2023-03-26T10:24:39;97703.30;;;14.54;100.00
23899;BME280;20544;50.018;20.010;2023-03-26T10:28:20;97703.08;;;14.20;100.00
23899;BME280;20544;50.018;20.010;2023-03-26T10:31:48;97707.32;;;13.73;100.00
23899;BME280;20544;50.018;20.010;2023-03-26T10:35:28;97693.05;;;13.68;100.00
23899;BME280;20544;50.018;20.010;2023-03-26T10:39:06;97703.45;;;13.57;100.00
23899;BME280;20544;50.018;20.010;2023-03-26T10:42:49;97700.86;;;13.20;100.00
23899;BME280;20544;50.018;20.010;2023-03-26T10:50:41;97693.59;;;13.27;100.00
23899;BME280;20544;50.018;20.010;2023-03-26T10:54:20;97693.70;;;13.21;100.00
23899;BME280;20544;50.018;20.010;2023-03-26T10:57:44;97685.41;;;13.10;100.00
23899;BME280;20544;50.018;20.010;2023-03-26T11:01:09;97680.34;;;12.90;100.00
23899;BME280;20544;50.018;20.010;2023-03-26T11:04:38;97682.73;;;12.80;100.00
23899;BME280;20544;50.018;20.010;2023-03-26T11:08:00;97670.36;;;12.86;100.00
23899;BME280;20544;50.018;20.010;2023-03-26T11:11:23;97672.18;;;12.55;100.00
23899;BME280;20544;50.018;20.010;2023-03-26T11:14:47;97674.66;;;12.68;100.00
23899;BME280;20544;50.018;20.010;2023-03-26T11:18:12;97672.14;;;12.73;100.00
23899;BME280;20544;50.018;20.010;2023-03-26T11:21:37;97673.72;;;12.81;100.00
23899;BME280;20544;50.018;20.010;2023-03-26T11:25:13;97668.71;;;13.03;100.00
23899;BME280;20544;50.018;20.010;2023-03-26T11:29:05;97669.69;;;13.39;100.00
23899;BME280;20544;50.018;20.010;2023-03-26T11:32:34;97669.97;;;13.50;100.00
23899;BME280;20544;50.018;20.010;2023-03-26T11:35:54;97665.31;;;13.15;100.00
23899;BME280;20544;50.018;20.010;2023-03-26T11:39:14;97659.78;;;13.28;100.00
23899;BME280;20544;50.018;20.010;2023-03-26T11:42:34;97660.66;;;13.10;100.00
23899;BME280;20544;50.018;20.010;2023-03-26T11:45:51;97656.97;;;13.11;100.00
23899;BME280;20544;50.018;20.010;2023-03-26T11:49:10;97649.11;;;13.16;100.00
23899;BME280;20544;50.018;20.010;2023-03-26T11:52:28;97644.52;;;13.23;100.00
23899;BME280;20544;50.018;20.010;2023-03-26T11:55:47;97644.75;;;13.03;100.00
23899;BME280;20544;50.018;20.010;2023-03-26T11:59:10;97643.06;;;13.09;100.00
23899;BME280;20544;50.018;20.010;2023-03-26T12:02:30;97646.08;;;13.13;100.00
23899;BME280;20544;50.018;20.010;2023-03-26T12:05:57;97634.81;;;12.99;100.00
23899;BME280;20544;50.018;20.010;2023-03-26T12:09:18;97638.17;;;13.06;100.00
23899;BME280;20544;50.018;20.010;2023-03-26T12:12:39;97628.97;;;13.20;100.00
23899;BME280;20544;50.018;20.010;2023-03-26T12:16:03;97618.45;;;13.25;100.00
23899;BME280;20544;50.018;20.010;2023-03-26T12:19:24;97620.72;;;13.40;100.00
23899;BME280;20544;50.018;20.010;2023-03-26T12:22:41;97624.06;;;13.36;100.00
23899;BME280;20544;50.018;20.010;2023-03-26T12:26:13;97620.88;;;13.27;100.00
23899;BME280;20544;50.018;20.010;2023-03-26T12:29:32;97613.72;;;13.27;100.00
23899;BME280;20544;50.018;20.010;2023-03-26T12:32:54;97625.23;;;13.09;100.00
23899;BME280;20544;50.018;20.010;2023-03-26T12:36:29;97613.23;;;13.19;100.00
23899;BME280;20544;50.018;20.010;2023-03-26T12:39:43;97613.36;;;13.24;100.00
23899;BME280;20544;50.018;20.010;2023-03-26T12:43:03;97601.91;;;13.23;100.00
23899;BME280;20544;50.018;20.010;2023-03-26T12:46:27;97599.58;;;13.27;100.00
23899;BME280;20544;50.018;20.010;2023-03-26T12:49:48;97598.34;;;13.30;100.00
23899;BME280;20544;50.018;20.010;2023-03-26T12:53:26;97600.64;;;13.26;100.00
23899;BME280;20544;50.018;20.010;2023-03-26T12:57:05;97593.77;;;13.18;100.00
23899;BME280;20544;50.018;20.010;2023-03-26T13:00:33;97596.78;;;13.10;100.00
23899;BME280;20544;50.018;20.010;2023-03-26T13:04:18;97594.06;;;12.98;100.00
23899;BME280;20544;50.018;20.010;2023-03-26T13:08:02;97598.45;;;12.92;100.00
23899;BME280;20544;50.018;20.010;2023-03-26T13:11:32;97592.80;;;13.01;100.00
23899;BME280;20544;50.018;20.010;2023-03-26T13:15:18;97579.18;;;13.09;100.00
23899;BME280;20544;50.018;20.010;2023-03-26T13:18:43;97572.64;;;12.93;100.00
23899;BME280;20544;50.018;20.010;2023-03-26T13:22:13;97560.38;;;12.92;100.00
23899;BME280;20544;50.018;20.010;2023-03-26T13:25:37;97558.25;;;12.82;100.00
23899;BME280;20544;50.018;20.010;2023-03-26T13:29:00;97552.44;;;12.73;100.00
23899;BME280;20544;50.018;20.010;2023-03-26T13:32:22;97555.16;;;12.55;100.00
23899;BME280;20544;50.018;20.010;2023-03-26T13:35:45;97547.22;;;12.67;100.00
23899;BME280;20544;50.018;20.010;2023-03-26T13:39:29;97539.38;;;12.72;100.00
23899;BME280;20544;50.018;20.010;2023-03-26T13:42:55;97541.26;;;12.83;100.00
23899;BME280;20544;50.018;20.010;2023-03-26T13:46:24;97524.16;;;12.91;100.00
23899;BME280;20544;50.018;20.010;2023-03-26T13:49:45;97529.63;;;12.96;100.00
23899;BME280;20544;50.018;20.010;2023-03-26T13:53:09;97536.77;;;12.84;100.00
23899;BME280;20544;50.018;20.010;2023-03-26T13:56:33;97533.25;;;12.71;100.00
23899;BME280;20544;50.018;20.010;2023-03-26T13:59:55;97528.66;;;12.78;100.00
23899;BME280;20544;50.018;20.010;2023-03-26T14:03:22;97515.50;;;12.95;100.00
23899;BME280;20544;50.018;20.010;2023-03-26T14:06:45;97513.74;;;12.89;100.00
23899;BME280;20544;50.018;20.010;2023-03-26T14:14:22;97511.80;;;12.97;100.00
23899;BME280;20544;50.018;20.010;2023-03-26T14:17:59;97511.84;;;13.08;100.00
23899;BME280;20544;50.018;20.010;2023-03-26T14:21:55;97519.42;;;12.93;100.00
23899;BME280;20544;50.018;20.010;2023-03-26T14:25:34;97511.92;;;13.02;100.00
23899;BME280;20544;50.018;20.010;2023-03-26T14:29:21;97509.73;;;13.10;100.00
23899;BME280;20544;50.018;20.010;2023-03-26T14:33:01;97519.12;;;13.13;100.00
23899;BME280;20544;50.018;20.010;2023-03-26T14:36:36;97514.27;;;13.10;100.00
23899;BME280;20544;50.018;20.010;2023-03-26T14:48:25;97514.59;;;13.02;100.00
23899;BME280;20544;50.018;20.010;2023-03-26T14:52:02;97511.13;;;13.01;100.00
23899;BME280;20544;50.018;20.010;2023-03-26T15:07:49;97502.53;;;12.87;100.00
23899;BME280;20544;50.018;20.010;2023-03-26T15:11:31;97504.84;;;12.84;100.00
23899;BME280;20544;50.018;20.010;2023-03-26T15:15:47;97500.67;;;12.88;100.00
23899;BME280;20544;50.018;20.010;2023-03-26T15:35:54;97495.03;;;12.96;100.00
23899;BME280;20544;50.018;20.010;2023-03-26T15:39:47;97482.89;;;13.00;100.00
23899;BME280;20544;50.018;20.010;2023-03-26T15:43:14;97477.20;;;12.97;100.00
23899;BME280;20544;50.018;20.010;2023-03-26T15:46:46;97484.95;;;12.98;100.00
23899;BME280;20544;50.018;20.010;2023-03-26T15:53:48;97481.84;;;13.01;100.00
23899;BME280;20544;50.018;20.010;2023-03-26T15:57:18;97480.45;;;12.99;100.00
23899;BME280;20544;50.018;20.010;2023-03-26T16:00:46;97472.36;;;12.93;100.00
23899;BME280;20544;50.018;20.010;2023-03-26T16:04:14;97474.78;;;12.95;100.00
23899;BME280;20544;50.018;20.010;2023-03-26T16:07:50;97467.03;;;12.93;100.00
23899;BME280;20544;50.018;20.010;2023-03-26T16:11:11;97469.10;;;12.91;100.00
23899;BME280;20544;50.018;20.010;2023-03-26T16:14:43;97462.39;;;12.89;100.00
23899;BME280;20544;50.018;20.010;2023-03-26T16:18:31;97454.64;;;12.87;100.00
23899;BME280;20544;50.018;20.010;2023-03-26T16:21:58;97457.07;;;12.89;100.00
23899;BME280;20544;50.018;20.010;2023-03-26T16:25:26;97453.11;;;12.79;100.00
23899;BME280;20544;50.018;20.010;2023-03-26T16:29:15;97455.20;;;12.77;100.00
23899;BME280;20544;50.018;20.010;2023-03-26T16:32:36;97453.45;;;12.71;100.00
23899;BME280;20544;50.018;20.010;2023-03-26T16:36:10;97449.84;;;12.66;100.00
23899;BME280;20544;50.018;20.010;2023-03-26T16:39:43;97443.59;;;12.60;100.00
23899;BME280;20544;50.018;20.010;2023-03-26T16:43:17;97445.66;;;12.58;100.00
23899;BME280;20544;50.018;20.010;2023-03-26T16:46:51;97447.03;;;12.49;100.00
23899;BME280;20544;50.018;20.010;2023-03-26T16:50:15;97449.10;;;12.46;100.00
23899;BME280;20544;50.018;20.010;2023-03-26T16:53:44;97450.80;;;12.41;100.00
23899;BME280;20544;50.018;20.010;2023-03-26T16:57:14;97449.88;;;12.35;100.00
23899;BME280;20544;50.018;20.010;2023-03-26T17:00:52;97452.97;;;12.32;100.00
23899;BME280;20544;50.018;20.010;2023-03-26T17:04:15;97449.95;;;12.28;100.00
23899;BME280;20544;50.018;20.010;2023-03-26T17:07:39;97449.02;;;12.23;100.00
23899;BME280;20544;50.018;20.010;2023-03-26T17:11:02;97443.56;;;12.18;100.00
23899;BME280;20544;50.018;20.010;2023-03-26T17:14:36;97447.69;;;12.13;100.00
23899;BME280;20544;50.018;20.010;2023-03-26T17:21:49;97444.63;;;11.98;100.00
23899;BME280;20544;50.018;20.010;2023-03-26T17:25:16;97435.83;;;11.79;100.00
23899;BME280;20544;50.018;20.010;2023-03-26T17:28:56;97428.89;;;11.59;100.00
23899;BME280;20544;50.018;20.010;2023-03-26T17:32:15;97438.02;;;11.45;100.00
23899;BME280;20544;50.018;20.010;2023-03-26T17:35:43;97437.50;;;11.36;100.00
23899;BME280;20544;50.018;20.010;2023-03-26T17:39:20;97438.07;;;11.20;100.00
23899;BME280;20544;50.018;20.010;2023-03-26T17:43:07;97435.75;;;11.05;100.00
23899;BME280;20544;50.018;20.010;2023-03-26T17:46:30;97435.63;;;10.93;100.00
23899;BME280;20544;50.018;20.010;2023-03-26T17:49:52;97438.61;;;10.78;100.00
23899;BME280;20544;50.018;20.010;2023-03-26T17:53:18;97433.62;;;10.63;100.00
23899;BME280;20544;50.018;20.010;2023-03-26T17:56:36;97429.06;;;10.45;100.00
23899;BME280;20544;50.018;20.010;2023-03-26T17:59:57;97434.63;;;10.30;100.00
23899;BME280;20544;50.018;20.010;2023-03-26T18:03:20;97432.14;;;10.35;100.00
23899;BME280;20544;50.018;20.010;2023-03-26T18:06:57;97429.33;;;10.30;100.00
23899;BME280;20544;50.018;20.010;2023-03-26T18:10:35;97425.55;;;10.12;100.00
23899;BME280;20544;50.018;20.010;2023-03-26T18:14:40;97436.37;;;10.11;100.00
23899;BME280;20544;50.018;20.010;2023-03-26T18:18:12;97433.11;;;10.09;100.00
23899;BME280;20544;50.018;20.010;2023-03-26T18:21:33;97419.06;;;10.08;100.00
23899;BME280;20544;50.018;20.010;2023-03-26T18:24:55;97434.11;;;10.14;100.00
23899;BME280;20544;50.018;20.010;2023-03-26T18:28:15;97425.72;;;10.17;100.00
23899;BME280;20544;50.018;20.010;2023-03-26T18:31:32;97416.41;;;10.08;100.00
23899;BME280;20544;50.018;20.010;2023-03-26T18:34:55;97421.94;;;10.00;100.00
23899;BME280;20544;50.018;20.010;2023-03-26T18:38:17;97417.05;;;9.97;100.00
23899;BME280;20544;50.018;20.010;2023-03-26T18:41:38;97404.59;;;10.04;100.00
23899;BME280;20544;50.018;20.010;2023-03-26T18:44:57;97412.26;;;10.19;100.00
23899;BME280;20544;50.018;20.010;2023-03-26T18:48:20;97412.63;;;10.29;100.00
23899;BME280;20544;50.018;20.010;2023-03-26T18:51:39;97420.72;;;10.41;100.00
23899;BME280;20544;50.018;20.010;2023-03-26T18:54:59;97416.58;;;10.52;100.00
23899;BME280;20544;50.018;20.010;2023-03-26T18:58:27;97429.39;;;10.55;100.00
23899;BME280;20544;50.018;20.010;2023-03-26T19:01:45;97429.53;;;10.67;100.00
23899;BME280;20544;50.018;20.010;2023-03-26T19:05:04;97429.47;;;10.74;100.00
23899;BME280;20544;50.018;20.010;2023-03-26T19:08:25;97422.88;;;10.83;100.00
23899;BME280;20544;50.018;20.010;2023-03-26T19:11:43;97430.17;;;10.88;100.00
23899;BME280;20544;50.018;20.010;2023-03-26T19:15:03;97418.54;;;10.89;100.00